TimeCST,TemperatureF,Dew PointF,Humidity,Sea Level PressureIn,VisibilityMPH,Wind Direction,Wind SpeedMPH,Gust SpeedMPH,PrecipitationIn,Events,Conditions,WindDirDegrees,DateUTC
12:00 AM,16,10,69,30.35,9,ESE,8.1,,,,,110,2012-10-28 06:00:00
12:00 AM,15.8,10.4,79,30.35,15.0,ESE,8.1,-,N/A,,Mostly Cloudy,110,2012-10-28 06:00:00
1:00 AM,14.0,8.6,79,30.35,15.0,SE,6.9,-,N/A,,Mostly Cloudy,130,2012-10-28 07:00:00
2:00 AM,15.8,10.4,79,30.34,15.0,ESE,10.4,-,N/A,,Mostly Cloudy,120,2012-10-28 08:00:00
3:00 AM,17.6,10.4,73,30.31,15.0,SE,10.4,-,N/A,,Mostly Cloudy,130,2012-10-28 09:00:00
4:00 AM,17.6,10.4,73,30.30,15.0,SE,11.5,-,N/A,,Mostly Cloudy,130,2012-10-28 10:00:00
5:00 AM,17.6,10.4,73,30.28,15.0,ESE,12.7,-,N/A,,Overcast,120,2012-10-28 11:00:00
6:00 AM,18,12,66,30.27,9,ESE,13.8,,,,Overcast,120,2012-10-28 12:00:00
6:00 AM,17.6,12.2,79,30.27,15.0,ESE,13.8,-,N/A,,Overcast,120,2012-10-28 12:00:00
7:00 AM,17.6,12.2,79,30.26,15.0,ESE,15.0,-,N/A,,Overcast,120,2012-10-28 13:00:00
8:00 AM,19.4,12.2,74,30.24,15.0,SE,16.1,21.9,N/A,,Overcast,130,2012-10-28 14:00:00
9:00 AM,19.4,12.2,74,30.24,15.0,SE,18.4,-,N/A,,Overcast,130,2012-10-28 15:00:00
10:00 AM,21.2,14.0,74,30.22,15.0,SE,18.4,24.2,N/A,,Overcast,130,2012-10-28 16:00:00
11:00 AM,23.0,14.0,68,30.21,15.0,SE,18.4,24.2,N/A,,Overcast,130,2012-10-28 17:00:00
12:00 PM,26,15,52,30.19,9,SE,21.9,,,,,140,2012-10-28 18:00:00
12:00 PM,26.6,15.8,64,30.19,15.0,SE,18.4,28.8,N/A,,Overcast,140,2012-10-28 18:00:00
12:05 PM,26.6,-9999,N/A,-9999,12.0,SE,17.3,27.6,N/A,Snow,Light Snow Showers,130,2012-10-28 18:05:00
1:00 PM,26.6,17.6,69,30.16,8.0,SE,21.9,29.9,N/A,Snow,Light Snow Showers,130,2012-10-28 19:00:00
2:00 PM,26.6,19.4,74,30.14,9.0,SE,21.9,27.6,N/A,Snow,Light Snow Showers,130,2012-10-28 20:00:00
2:18 PM,26.6,-9999,N/A,-9999,2.5,SE,21.9,29.9,N/A,Snow,Light Snow,130,2012-10-28 20:18:00
2:35 PM,26.6,-9999,N/A,-9999,2.0,SE,24.2,-,N/A,Snow,Light Snow,130,2012-10-28 20:35:00
3:00 PM,26.6,21.2,80,30.12,2.5,SE,20.7,29.9,N/A,Snow,Light Snow,130,2012-10-28 21:00:00
4:00 PM,26.6,21.2,80,30.11,2.5,SE,20.7,29.9,N/A,Snow,Light Snow,130,2012-10-28 22:00:00
4:31 PM,26.6,-9999,N/A,-9999,4.0,SE,20.7,28.8,N/A,Snow,Light Snow,130,2012-10-28 22:31:00
5:00 PM,26.6,21.2,80,30.11,6.0,SE,18.4,28.8,N/A,Snow,Light Snow,130,2012-10-28 23:00:00
5:34 PM,26.6,-9999,N/A,-9999,15.0,SE,19.6,27.6,N/A,Snow,Low Drifting Snow,140,2012-10-28 23:34:00
5:50 PM,26.6,-9999,N/A,-9999,12.0,SE,18.4,28.8,N/A,Snow,Light Snow,130,2012-10-28 23:50:00
6:00 PM,27,21,71,30.11,6,SE,23.0,,,,Overcast,130,2012-10-29 00:00:00
6:00 PM,26.6,21.2,80,30.11,12.0,SE,21.9,28.8,N/A,Snow,Light Snow,130,2012-10-29 00:00:00
7:00 PM,26.6,21.2,80,30.11,10.0,SE,25.3,31.1,N/A,Snow,Light Snow,130,2012-10-29 01:00:00
8:53 PM,26.6,-9999,N/A,-9999,15.0,SE,21.9,-,N/A,Snow,Light Snow,130,2012-10-29 02:53:00
9:00 PM,26.6,23.0,86,30.09,15.0,SE,24.2,-,N/A,Snow,Light Snow,130,2012-10-29 03:00:00
10:00 PM,26.6,23.0,86,30.09,15.0,SE,21.9,27.6,N/A,Snow,Light Snow,130,2012-10-29 04:00:00
11:00 PM,26.6,23.0,86,30.09,12.0,SE,17.3,27.6,N/A,Snow,Light Snow,140,2012-10-29 05:00:00
11:43 PM,28.4,-9999,N/A,-9999,15.0,SE,21.9,-,N/A,Snow,Light Snow,140,2012-10-29 05:43:00